メインページ
METAR-TAF:

METAR-TAF

空港 :

マデイラ空港

フンシャル, マデイラ諸島, ポルトガル

緯度: 32-41-52N, 経度: 016-46-28W, 海抜: 59m

現時点の気象観測

当レポートは16分前の00:30(UTC)に作成
西の風 6kt、南西からの間で変化する
気温 17°C
湿度 77%
気圧 1013 hPa
視程10km以上
高度1500ftの雲は散在している

METAR: LPMA 150030Z 26006KT 230V360 9999 SCT015 17/13 Q1013

時間: 00:46 (00:46 UTC)

予報

当レポートは1時間46分前の23:00(UTC)に作成
予報は15日の 00時(UTC)から 15日の 24時(UTC)まで有効
南西の風 20kt
視程10km以上
高度1500ftの雲は散在している
高度3000ftの千切れ雲あり
15日の 00時(UTC)から 15日の 02時(UTC)まで一時的に
南西の風 25kt、最大35ktの突風を伴う
視程: 3000m
高度600ftの雲は散在している
高度1300ftの千切れ雲あり
高度2000ftの雲はほとんどない, 塔状積雲.
雨, 霧雨
確率 30% :
15日の 00時(UTC)から 15日の 02時(UTC)まで一時的に
南西の風 30kt、最大40ktの突風を伴う
視程: 2000m
高度500ftの雲は散在している
高度1000ftの千切れ雲あり
高度1800ftの雲はほとんどない, 積乱雲.
大雨, 霧雨, 靄
15日の 02時(UTC)から 15日の 04時(UTC)まで徐々に
北/北西の風 15kt
高度1500ftの雲は散在している
15日の 02時(UTC)から 15日の 24時(UTC)まで一時的に
北/北西の風 18kt、最大33ktの突風を伴う
視程: 8000m
高度1500ftの千切れ雲あり
高度2000ftの雲はほとんどない, 積乱雲.
にわか雨
確率 30% :
15日の 10時(UTC)から 15日の 24時(UTC)まで一時的に
視程: 3000m
高度1800ftの雲は散在している, 積乱雲.
激しい雷雨, 雨

TAF: LPMA 142300Z 1500/1524 22020KT 9999 SCT015 BKN030 TEMPO 1500/1502 22025G35KT 3000 RADZ SCT006 BKN013 FEW020TCU PROB30 TEMPO 1500/1502 23030G40KT 2000 +RADZ BR SCT005 BKN010 FEW018CB BECMG 1502/1504 33015KT SCT015 TEMPO 1502/1524 34018G33KT 8000 SHRA BKN015 FEW020CB PROB30 TEMPO 1510/1524 3000 TSRA SCT018CB

4,000以上の空港の気象観測と天気予報(METAR報とTAF報)

利用可能な観測所は地図上に黄色い丸と赤い丸で示す。

丸の上にカーソルを重ねると観測所名を参照できる。

次にクリックすると気象観測と天気予報を参照できる。

マップの切り替え:黒色「×」印の緑ボタンをクリックして拡大、「-」印の緑ボタンをクリックして縮小、緑色の三角印をクリックして隣りの地図に切り替え


METAR-TAF: